HKE843 ROAH-VHHH
Flight info
| Callsign | HKE843 |
|---|---|
| Flight time | 2h 19m |
| Altitude | 34000 |
| Route | GANJU Y576 LILRA Y573 SEDKU R595 APU A1 ELATO V522 ABBEY |
| Aircraft | A320/M-SDE3FGHIRWY/LB1 |
Departure
| Time | 2026-04-26 02:13 |
|---|---|
| Airport | Naha International Airport (ROAH) |
Arrival
| Time | 2026-04-26 04:33 |
|---|---|
| Airport | Hong Kong International Airport (VHHH) |
| Time | Latitude | Longitude | Altitude | Speed | Heading |
|---|---|---|---|---|---|
| 2026-04-26 01:47 | 26.21007 | 127.64980 | 22 ft | 0 kts | 87° |
| 2026-04-26 02:00 | 26.21006 | 127.64973 | 21 ft | 4 kts | 88° |
| 2026-04-26 02:00 | 26.21006 | 127.64943 | 21 ft | 4 kts | 93° |
| 2026-04-26 02:01 | 26.21009 | 127.64913 | 22 ft | 4 kts | 105° |
| 2026-04-26 02:01 | 26.21019 | 127.64888 | 23 ft | 4 kts | 148° |
| 2026-04-26 02:01 | 26.21028 | 127.64884 | 21 ft | 0 kts | 178° |
| 2026-04-26 02:04 | 26.21018 | 127.64884 | 23 ft | 3 kts | 178° |
| 2026-04-26 02:04 | 26.20987 | 127.64885 | 22 ft | 6 kts | 178° |
| 2026-04-26 02:04 | 26.20942 | 127.64876 | 20 ft | 8 kts | 204° |
| 2026-04-26 02:05 | 26.20912 | 127.64821 | 19 ft | 10 kts | 259° |
| 2026-04-26 02:05 | 26.20884 | 127.64741 | 18 ft | 13 kts | 212° |
| 2026-04-26 02:05 | 26.20793 | 127.64738 | 17 ft | 14 kts | 178° |
| 2026-04-26 02:05 | 26.20684 | 127.64742 | 17 ft | 17 kts | 178° |
| 2026-04-26 02:06 | 26.20562 | 127.64747 | 17 ft | 18 kts | 178° |
| 2026-04-26 02:06 | 26.20431 | 127.64754 | 18 ft | 19 kts | 177° |
| 2026-04-26 02:06 | 26.20289 | 127.64761 | 17 ft | 21 kts | 178° |
| 2026-04-26 02:06 | 26.20136 | 127.64768 | 17 ft | 23 kts | 174° |
| 2026-04-26 02:07 | 26.19978 | 127.64775 | 17 ft | 24 kts | 179° |
| 2026-04-26 02:07 | 26.19795 | 127.64785 | 17 ft | 29 kts | 176° |
| 2026-04-26 02:07 | 26.19582 | 127.64791 | 17 ft | 33 kts | 179° |
| 2026-04-26 02:07 | 26.19348 | 127.64805 | 17 ft | 34 kts | 177° |
| 2026-04-26 02:08 | 26.19117 | 127.64817 | 17 ft | 33 kts | 178° |
| 2026-04-26 02:08 | 26.18896 | 127.64826 | 17 ft | 31 kts | 176° |
| 2026-04-26 02:08 | 26.18686 | 127.64838 | 17 ft | 29 kts | 178° |
| 2026-04-26 02:08 | 26.18488 | 127.64845 | 17 ft | 28 kts | 178° |
| 2026-04-26 02:09 | 26.18300 | 127.64851 | 17 ft | 25 kts | 184° |
| 2026-04-26 02:09 | 26.18240 | 127.64802 | 16 ft | 3 kts | 262° |
| 2026-04-26 02:09 | 26.18240 | 127.64784 | 16 ft | 2 kts | 269° |
| 2026-04-26 02:09 | 26.18240 | 127.64770 | 16 ft | 2 kts | 272° |
| 2026-04-26 02:10 | 26.18240 | 127.64763 | 16 ft | 0 kts | 271° |
| 2026-04-26 02:11 | 26.18241 | 127.64759 | 16 ft | 2 kts | 271° |
| 2026-04-26 02:11 | 26.18241 | 127.64726 | 16 ft | 6 kts | 270° |
| 2026-04-26 02:11 | 26.18251 | 127.64665 | 17 ft | 9 kts | 309° |
| 2026-04-26 02:12 | 26.18329 | 127.64647 | 17 ft | 20 kts | 356° |
| 2026-04-26 02:12 | 26.18687 | 127.64631 | 18 ft | 83 kts | 358° |
| 2026-04-26 02:12 | 26.19444 | 127.64596 | 16 ft | 133 kts | 358° |
| 2026-04-26 02:12 | 26.20497 | 127.64612 | 125 ft | 164 kts | 2° |
| 2026-04-26 02:13 | 26.21642 | 127.64428 | 584 ft | 168 kts | 353° |
| 2026-04-26 02:13 | 26.22804 | 127.64307 | 1235 ft | 167 kts | 357° |
| 2026-04-26 02:13 | 26.23966 | 127.64274 | 1911 ft | 170 kts | 356° |
| 2026-04-26 02:13 | 26.25215 | 127.64237 | 2213 ft | 190 kts | 352° |
| 2026-04-26 02:14 | 26.26508 | 127.63730 | 2497 ft | 208 kts | 331° |
| 2026-04-26 02:14 | 26.27852 | 127.62902 | 2820 ft | 233 kts | 329° |
| 2026-04-26 02:14 | 26.29308 | 127.61958 | 3414 ft | 248 kts | 328° |
| 2026-04-26 02:14 | 26.30816 | 127.60979 | 4207 ft | 253 kts | 327° |
| 2026-04-26 02:15 | 26.32341 | 127.59994 | 5058 ft | 254 kts | 326° |
| 2026-04-26 02:15 | 26.33886 | 127.59003 | 5858 ft | 258 kts | 326° |
| 2026-04-26 02:15 | 26.35460 | 127.58002 | 6644 ft | 263 kts | 326° |
| 2026-04-26 02:15 | 26.37069 | 127.56984 | 7351 ft | 269 kts | 326° |
| 2026-04-26 02:16 | 26.38718 | 127.55943 | 8031 ft | 276 kts | 326° |
| 2026-04-26 02:16 | 26.40230 | 127.54641 | 8679 ft | 276 kts | 305° |
| 2026-04-26 02:16 | 26.41108 | 127.52766 | 9350 ft | 274 kts | 281° |
| 2026-04-26 02:16 | 26.41188 | 127.50659 | 10027 ft | 274 kts | 256° |
| 2026-04-26 02:17 | 26.40465 | 127.48678 | 10450 ft | 285 kts | 234° |
| 2026-04-26 02:17 | 26.39144 | 127.46915 | 10616 ft | 308 kts | 229° |
| 2026-04-26 02:17 | 26.37680 | 127.45059 | 10830 ft | 328 kts | 229° |
| 2026-04-26 02:17 | 26.36171 | 127.43149 | 11017 ft | 335 kts | 229° |
| 2026-04-26 02:18 | 26.34617 | 127.41175 | 11014 ft | 334 kts | 228° |
| 2026-04-26 02:18 | 26.33060 | 127.39306 | 11014 ft | 333 kts | 225° |
| 2026-04-26 02:18 | 26.31434 | 127.37495 | 10999 ft | 330 kts | 225° |
| 2026-04-26 02:18 | 26.29776 | 127.35714 | 11015 ft | 332 kts | 224° |
| 2026-04-26 02:19 | 26.28102 | 127.33932 | 11042 ft | 335 kts | 224° |
| 2026-04-26 02:19 | 26.26412 | 127.32126 | 11659 ft | 337 kts | 224° |
| 2026-04-26 02:19 | 26.24722 | 127.30306 | 12316 ft | 339 kts | 225° |
| 2026-04-26 02:19 | 26.23028 | 127.28466 | 12919 ft | 342 kts | 225° |
| 2026-04-26 02:20 | 26.21325 | 127.26608 | 13565 ft | 344 kts | 225° |
| 2026-04-26 02:20 | 26.19613 | 127.24739 | 14155 ft | 346 kts | 225° |
| 2026-04-26 02:20 | 26.17892 | 127.22863 | 14729 ft | 347 kts | 225° |
| 2026-04-26 02:20 | 26.16171 | 127.20987 | 15334 ft | 346 kts | 225° |
| 2026-04-26 02:21 | 26.14447 | 127.19107 | 15903 ft | 347 kts | 225° |
| 2026-04-26 02:21 | 26.12762 | 127.17178 | 16458 ft | 348 kts | 231° |
| 2026-04-26 02:21 | 26.11383 | 127.14962 | 17020 ft | 349 kts | 238° |
| 2026-04-26 02:21 | 26.10096 | 127.12662 | 17596 ft | 350 kts | 238° |
| 2026-04-26 02:22 | 26.08802 | 127.10360 | 18164 ft | 352 kts | 238° |
| 2026-04-26 02:22 | 26.07498 | 127.08048 | 18669 ft | 353 kts | 238° |
| 2026-04-26 02:22 | 26.06187 | 127.05729 | 19124 ft | 356 kts | 237° |
| 2026-04-26 02:22 | 26.04861 | 127.03391 | 19598 ft | 358 kts | 237° |
| 2026-04-26 02:23 | 26.03528 | 127.01041 | 20091 ft | 360 kts | 237° |
| 2026-04-26 02:23 | 26.02185 | 126.98680 | 20569 ft | 362 kts | 237° |
| 2026-04-26 02:23 | 26.00836 | 126.96310 | 21052 ft | 364 kts | 237° |
| 2026-04-26 02:23 | 25.99483 | 126.93925 | 21511 ft | 366 kts | 237° |
| 2026-04-26 02:24 | 25.98124 | 126.91526 | 21949 ft | 367 kts | 236° |
| 2026-04-26 02:24 | 25.96758 | 126.89119 | 22379 ft | 369 kts | 236° |
| 2026-04-26 02:24 | 25.95382 | 126.86696 | 22801 ft | 371 kts | 236° |
| 2026-04-26 02:24 | 25.94001 | 126.84263 | 23228 ft | 373 kts | 236° |
| 2026-04-26 02:25 | 25.92629 | 126.81848 | 23629 ft | 376 kts | 236° |
| 2026-04-26 02:25 | 25.91212 | 126.79357 | 23981 ft | 377 kts | 236° |
| 2026-04-26 02:25 | 25.89805 | 126.76889 | 24341 ft | 379 kts | 236° |
| 2026-04-26 02:25 | 25.88394 | 126.74412 | 24700 ft | 380 kts | 236° |
| 2026-04-26 02:26 | 25.86979 | 126.71930 | 25070 ft | 381 kts | 236° |
| 2026-04-26 02:26 | 25.85609 | 126.69410 | 25424 ft | 382 kts | 238° |
| 2026-04-26 02:26 | 25.84285 | 126.66843 | 25768 ft | 384 kts | 238° |
| 2026-04-26 02:26 | 25.82982 | 126.64251 | 26116 ft | 385 kts | 239° |
| 2026-04-26 02:27 | 25.81681 | 126.61642 | 26468 ft | 387 kts | 239° |
| 2026-04-26 02:27 | 25.80372 | 126.59029 | 26814 ft | 388 kts | 238° |
| 2026-04-26 02:27 | 25.79048 | 126.56415 | 27170 ft | 389 kts | 238° |
| 2026-04-26 02:27 | 25.77708 | 126.53799 | 27513 ft | 391 kts | 238° |
| 2026-04-26 02:28 | 25.76381 | 126.51219 | 27960 ft | 389 kts | 238° |
| 2026-04-26 02:28 | 25.75044 | 126.48624 | 28488 ft | 386 kts | 238° |
| 2026-04-26 02:28 | 25.73718 | 126.46051 | 29026 ft | 383 kts | 238° |
| 2026-04-26 02:28 | 25.72401 | 126.43496 | 29534 ft | 381 kts | 238° |
| 2026-04-26 02:29 | 25.71088 | 126.40951 | 30047 ft | 378 kts | 238° |
| 2026-04-26 02:29 | 25.69784 | 126.38425 | 30476 ft | 377 kts | 238° |
| 2026-04-26 02:29 | 25.68486 | 126.35912 | 30880 ft | 375 kts | 238° |
| 2026-04-26 02:29 | 25.67192 | 126.33407 | 31277 ft | 374 kts | 238° |
| 2026-04-26 02:30 | 25.65903 | 126.30908 | 31669 ft | 373 kts | 237° |
| 2026-04-26 02:30 | 25.64617 | 126.28417 | 32068 ft | 371 kts | 237° |
| 2026-04-26 02:30 | 25.63336 | 126.25938 | 32468 ft | 370 kts | 237° |
| 2026-04-26 02:30 | 25.62058 | 126.23468 | 32918 ft | 368 kts | 237° |
| 2026-04-26 02:31 | 25.60787 | 126.21014 | 33389 ft | 366 kts | 237° |
| 2026-04-26 02:31 | 25.59522 | 126.18576 | 33802 ft | 364 kts | 237° |
| 2026-04-26 02:31 | 25.58255 | 126.16139 | 33970 ft | 365 kts | 237° |
| 2026-04-26 02:32 | 25.55678 | 126.11189 | 34017 ft | 377 kts | 237° |
| 2026-04-26 02:32 | 25.53050 | 126.06132 | 34018 ft | 380 kts | 237° |
| 2026-04-26 02:33 | 25.50420 | 126.01054 | 34020 ft | 380 kts | 237° |
| 2026-04-26 02:33 | 25.47790 | 125.95982 | 34014 ft | 380 kts | 237° |
| 2026-04-26 02:34 | 25.45147 | 125.90919 | 34025 ft | 380 kts | 237° |
| 2026-04-26 02:34 | 25.42497 | 125.85856 | 33997 ft | 380 kts | 237° |
| 2026-04-26 02:35 | 25.39852 | 125.80792 | 34001 ft | 380 kts | 237° |
| 2026-04-26 02:35 | 25.37206 | 125.75723 | 34008 ft | 381 kts | 237° |
| 2026-04-26 02:36 | 25.34555 | 125.70662 | 34040 ft | 380 kts | 237° |
| 2026-04-26 02:36 | 25.31882 | 125.65625 | 34040 ft | 379 kts | 237° |
| 2026-04-26 02:37 | 25.29216 | 125.60642 | 34040 ft | 379 kts | 237° |
| 2026-04-26 02:37 | 25.26533 | 125.55626 | 34038 ft | 379 kts | 237° |
| 2026-04-26 02:38 | 25.23852 | 125.50608 | 34008 ft | 379 kts | 237° |
| 2026-04-26 02:38 | 25.21168 | 125.45587 | 34039 ft | 379 kts | 237° |
| 2026-04-26 02:39 | 25.18482 | 125.40576 | 34039 ft | 379 kts | 237° |
| 2026-04-26 02:39 | 25.15795 | 125.35569 | 34038 ft | 379 kts | 237° |
| 2026-04-26 02:40 | 25.13110 | 125.30570 | 34039 ft | 379 kts | 237° |
| 2026-04-26 02:40 | 25.10430 | 125.25570 | 34038 ft | 378 kts | 236° |
| 2026-04-26 02:41 | 25.07334 | 125.20885 | 34027 ft | 377 kts | 233° |
| 2026-04-26 02:41 | 25.04181 | 125.16255 | 34030 ft | 378 kts | 232° |
| 2026-04-26 02:42 | 25.01560 | 125.12406 | 34032 ft | 378 kts | 233° |
| 2026-04-26 02:42 | 24.98379 | 125.07793 | 34034 ft | 378 kts | 231° |
| 2026-04-26 02:43 | 24.93380 | 125.01090 | 34031 ft | 377 kts | 230° |
| 2026-04-26 02:43 | 24.90034 | 124.96638 | 34017 ft | 377 kts | 231° |
| 2026-04-26 02:44 | 24.86709 | 124.92162 | 34019 ft | 378 kts | 231° |
| 2026-04-26 02:44 | 24.84105 | 124.87178 | 34018 ft | 381 kts | 250° |
| 2026-04-26 02:45 | 24.83648 | 124.81312 | 34018 ft | 396 kts | 270° |
| 2026-04-26 02:45 | 24.84386 | 124.75293 | 34018 ft | 397 kts | 270° |
| 2026-04-26 02:46 | 24.85116 | 124.69263 | 34050 ft | 397 kts | 271° |
| 2026-04-26 02:46 | 24.85844 | 124.63281 | 34048 ft | 397 kts | 271° |
| 2026-04-26 02:47 | 24.86567 | 124.57259 | 34048 ft | 396 kts | 271° |
| 2026-04-26 02:47 | 24.87286 | 124.51247 | 34047 ft | 396 kts | 271° |
| 2026-04-26 02:48 | 24.87999 | 124.45230 | 34062 ft | 396 kts | 271° |
| 2026-04-26 02:48 | 24.88713 | 124.39214 | 34064 ft | 396 kts | 271° |
| 2026-04-26 02:49 | 24.89434 | 124.33192 | 34059 ft | 397 kts | 272° |
| 2026-04-26 02:49 | 24.90153 | 124.27170 | 34059 ft | 397 kts | 271° |
| 2026-04-26 02:50 | 24.90859 | 124.21145 | 34081 ft | 397 kts | 272° |
| 2026-04-26 02:50 | 24.91564 | 124.15113 | 34052 ft | 398 kts | 272° |
| 2026-04-26 02:51 | 24.92272 | 124.09064 | 34041 ft | 398 kts | 273° |
| 2026-04-26 02:51 | 24.92981 | 124.03002 | 34039 ft | 399 kts | 273° |
| 2026-04-26 02:52 | 24.93675 | 123.96937 | 34045 ft | 399 kts | 272° |
| 2026-04-26 02:52 | 24.94316 | 123.90859 | 34063 ft | 399 kts | 273° |
| 2026-04-26 02:53 | 24.94942 | 123.84782 | 34058 ft | 400 kts | 274° |
| 2026-04-26 02:53 | 24.95582 | 123.78700 | 34023 ft | 400 kts | 273° |
| 2026-04-26 02:54 | 24.96227 | 123.72620 | 34037 ft | 399 kts | 273° |
| 2026-04-26 02:54 | 24.96863 | 123.66585 | 34053 ft | 399 kts | 274° |
| 2026-04-26 02:55 | 24.97494 | 123.60514 | 34056 ft | 399 kts | 274° |
| 2026-04-26 02:55 | 24.98126 | 123.54443 | 34058 ft | 399 kts | 274° |
| 2026-04-26 02:56 | 24.98756 | 123.48374 | 34058 ft | 398 kts | 274° |
| 2026-04-26 02:56 | 24.99380 | 123.42309 | 34057 ft | 398 kts | 274° |
| 2026-04-26 02:57 | 24.99997 | 123.36245 | 34057 ft | 398 kts | 274° |
| 2026-04-26 02:57 | 25.00615 | 123.30180 | 34057 ft | 398 kts | 274° |
| 2026-04-26 02:58 | 25.01235 | 123.24113 | 34057 ft | 398 kts | 274° |
| 2026-04-26 02:58 | 25.01850 | 123.18044 | 34057 ft | 398 kts | 274° |
| 2026-04-26 02:59 | 25.02460 | 123.11972 | 34044 ft | 400 kts | 275° |
| 2026-04-26 02:59 | 25.03068 | 123.05863 | 34030 ft | 402 kts | 275° |
| 2026-04-26 03:00 | 25.03682 | 122.99715 | 34026 ft | 404 kts | 275° |
| 2026-04-26 03:00 | 25.04305 | 122.93541 | 34034 ft | 406 kts | 275° |
| 2026-04-26 03:01 | 25.04930 | 122.87355 | 34033 ft | 407 kts | 276° |
| 2026-04-26 03:01 | 25.05542 | 122.81137 | 34025 ft | 409 kts | 276° |
| 2026-04-26 03:02 | 25.06149 | 122.74920 | 34024 ft | 411 kts | 276° |
| 2026-04-26 03:02 | 25.06769 | 122.68600 | 34030 ft | 412 kts | 276° |
| 2026-04-26 03:03 | 25.07384 | 122.62348 | 34042 ft | 413 kts | 276° |
| 2026-04-26 03:03 | 25.07993 | 122.56045 | 34066 ft | 413 kts | 277° |
| 2026-04-26 03:04 | 25.08598 | 122.49754 | 34068 ft | 412 kts | 277° |
| 2026-04-26 03:04 | 25.09200 | 122.43470 | 34068 ft | 412 kts | 277° |
| 2026-04-26 03:05 | 25.09808 | 122.37187 | 34065 ft | 412 kts | 277° |
| 2026-04-26 03:05 | 25.10416 | 122.30907 | 34074 ft | 412 kts | 278° |
| 2026-04-26 03:06 | 25.11000 | 122.24630 | 34070 ft | 411 kts | 277° |
| 2026-04-26 03:06 | 25.11522 | 122.18356 | 34069 ft | 410 kts | 277° |
| 2026-04-26 03:07 | 25.12027 | 122.12084 | 34066 ft | 410 kts | 277° |
| 2026-04-26 03:07 | 25.12544 | 122.05815 | 34071 ft | 410 kts | 278° |
| 2026-04-26 03:08 | 25.13072 | 121.99553 | 34036 ft | 410 kts | 277° |
| 2026-04-26 03:08 | 25.13660 | 121.93304 | 34048 ft | 409 kts | 278° |
| 2026-04-26 03:09 | 25.14303 | 121.87064 | 34060 ft | 409 kts | 278° |
| 2026-04-26 03:09 | 25.14935 | 121.80821 | 34063 ft | 409 kts | 278° |
| 2026-04-26 03:10 | 25.15542 | 121.74578 | 34078 ft | 409 kts | 279° |
| 2026-04-26 03:10 | 25.16136 | 121.68349 | 34082 ft | 408 kts | 279° |
| 2026-04-26 03:11 | 25.16735 | 121.62134 | 34078 ft | 406 kts | 279° |
| 2026-04-26 03:11 | 25.17077 | 121.55912 | 34075 ft | 410 kts | 269° |
| 2026-04-26 03:12 | 25.16539 | 121.52802 | 34074 ft | 417 kts | 258° |
| 2026-04-26 03:12 | 25.15406 | 121.49820 | 34072 ft | 426 kts | 247° |
| 2026-04-26 03:12 | 25.13714 | 121.47093 | 34059 ft | 437 kts | 237° |
| 2026-04-26 03:12 | 25.11746 | 121.44535 | 34056 ft | 438 kts | 237° |
| 2026-04-26 03:13 | 25.07825 | 121.39448 | 34072 ft | 438 kts | 237° |
| 2026-04-26 03:13 | 25.03869 | 121.34326 | 34061 ft | 439 kts | 237° |
| 2026-04-26 03:14 | 24.99908 | 121.29209 | 34049 ft | 438 kts | 237° |
| 2026-04-26 03:14 | 24.95953 | 121.24100 | 34053 ft | 438 kts | 237° |
| 2026-04-26 03:15 | 24.91999 | 121.18987 | 34061 ft | 438 kts | 237° |
| 2026-04-26 03:15 | 24.88042 | 121.13884 | 34064 ft | 438 kts | 237° |
| 2026-04-26 03:16 | 24.84077 | 121.08791 | 34067 ft | 438 kts | 237° |
| 2026-04-26 03:16 | 24.80121 | 121.03697 | 34064 ft | 438 kts | 237° |
| 2026-04-26 03:17 | 24.76163 | 120.98604 | 34073 ft | 438 kts | 237° |
| 2026-04-26 03:17 | 24.72203 | 120.93519 | 34059 ft | 438 kts | 237° |
| 2026-04-26 03:18 | 24.68265 | 120.88470 | 34060 ft | 438 kts | 237° |
| 2026-04-26 03:18 | 24.64299 | 120.83391 | 34063 ft | 438 kts | 237° |
| 2026-04-26 03:19 | 24.60335 | 120.78312 | 34048 ft | 437 kts | 237° |
| 2026-04-26 03:19 | 24.56379 | 120.73234 | 34049 ft | 437 kts | 237° |
| 2026-04-26 03:20 | 24.52266 | 120.68276 | 34057 ft | 441 kts | 233° |
| 2026-04-26 03:20 | 24.47960 | 120.63475 | 34064 ft | 442 kts | 232° |
| 2026-04-26 03:21 | 24.43653 | 120.58674 | 34064 ft | 441 kts | 233° |
| 2026-04-26 03:21 | 24.39394 | 120.53834 | 34045 ft | 441 kts | 233° |
| 2026-04-26 03:22 | 24.35148 | 120.48983 | 34047 ft | 441 kts | 233° |
| 2026-04-26 03:22 | 24.30900 | 120.44141 | 34053 ft | 441 kts | 233° |
| 2026-04-26 03:23 | 24.26635 | 120.39302 | 34053 ft | 441 kts | 233° |
| 2026-04-26 03:23 | 24.22367 | 120.34462 | 34056 ft | 442 kts | 233° |
| 2026-04-26 03:24 | 24.18100 | 120.29618 | 34055 ft | 442 kts | 233° |
| 2026-04-26 03:24 | 24.13822 | 120.24776 | 34032 ft | 443 kts | 233° |
| 2026-04-26 03:25 | 24.09570 | 120.19965 | 34042 ft | 443 kts | 233° |
| 2026-04-26 03:25 | 24.05287 | 120.15125 | 34050 ft | 443 kts | 233° |
| 2026-04-26 03:26 | 24.00998 | 120.10291 | 34041 ft | 442 kts | 234° |
| 2026-04-26 03:26 | 23.96718 | 120.05460 | 34034 ft | 443 kts | 234° |
| 2026-04-26 03:27 | 23.92434 | 120.00625 | 34007 ft | 443 kts | 234° |
| 2026-04-26 03:27 | 23.88142 | 119.95798 | 34015 ft | 443 kts | 234° |
| 2026-04-26 03:28 | 23.83845 | 119.90970 | 34025 ft | 443 kts | 234° |
| 2026-04-26 03:28 | 23.79547 | 119.86138 | 34038 ft | 443 kts | 234° |
| 2026-04-26 03:29 | 23.75245 | 119.81315 | 34035 ft | 443 kts | 234° |
| 2026-04-26 03:29 | 23.70933 | 119.76487 | 34013 ft | 444 kts | 233° |
| 2026-04-26 03:30 | 23.66624 | 119.71662 | 34030 ft | 444 kts | 233° |
| 2026-04-26 03:30 | 23.62338 | 119.66862 | 34043 ft | 445 kts | 233° |
| 2026-04-26 03:31 | 23.58396 | 119.61775 | 34046 ft | 432 kts | 245° |
| 2026-04-26 03:31 | 23.55199 | 119.56229 | 34050 ft | 432 kts | 245° |
| 2026-04-26 03:32 | 23.51985 | 119.50691 | 34046 ft | 432 kts | 245° |
| 2026-04-26 03:32 | 23.49313 | 119.46087 | 34022 ft | 433 kts | 244° |
| 2026-04-26 03:33 | 23.46091 | 119.40536 | 34023 ft | 434 kts | 244° |
| 2026-04-26 03:33 | 23.42856 | 119.34980 | 34035 ft | 435 kts | 244° |
| 2026-04-26 03:34 | 23.39619 | 119.29419 | 34036 ft | 435 kts | 244° |
| 2026-04-26 03:34 | 23.36376 | 119.23853 | 34039 ft | 435 kts | 244° |
| 2026-04-26 03:35 | 23.33136 | 119.18291 | 34042 ft | 435 kts | 244° |
| 2026-04-26 03:35 | 23.29884 | 119.12727 | 34022 ft | 436 kts | 244° |
| 2026-04-26 03:36 | 23.26629 | 119.07155 | 34029 ft | 437 kts | 244° |
| 2026-04-26 03:36 | 23.23364 | 119.01568 | 34036 ft | 438 kts | 244° |
| 2026-04-26 03:37 | 23.20117 | 118.96022 | 34046 ft | 438 kts | 244° |
| 2026-04-26 03:37 | 23.16844 | 118.90436 | 34042 ft | 438 kts | 244° |
| 2026-04-26 03:38 | 23.13564 | 118.84852 | 34049 ft | 438 kts | 243° |
| 2026-04-26 03:38 | 23.10277 | 118.79268 | 34055 ft | 439 kts | 243° |
| 2026-04-26 03:39 | 23.06991 | 118.73683 | 34035 ft | 439 kts | 243° |
| 2026-04-26 03:39 | 23.03702 | 118.68087 | 34044 ft | 440 kts | 243° |
| 2026-04-26 03:40 | 23.00406 | 118.62496 | 34051 ft | 440 kts | 243° |
| 2026-04-26 03:40 | 22.97098 | 118.56901 | 34053 ft | 440 kts | 243° |
| 2026-04-26 03:41 | 22.93790 | 118.51313 | 34059 ft | 440 kts | 243° |
| 2026-04-26 03:41 | 22.90473 | 118.45730 | 34060 ft | 440 kts | 243° |
| 2026-04-26 03:42 | 22.87148 | 118.40158 | 34036 ft | 440 kts | 243° |
| 2026-04-26 03:42 | 22.83824 | 118.34582 | 34036 ft | 440 kts | 243° |
| 2026-04-26 03:43 | 22.80522 | 118.29037 | 34042 ft | 441 kts | 243° |
| 2026-04-26 03:43 | 22.77196 | 118.23456 | 34044 ft | 441 kts | 243° |
| 2026-04-26 03:44 | 22.73855 | 118.17877 | 34056 ft | 441 kts | 243° |
| 2026-04-26 03:44 | 22.70508 | 118.12302 | 34054 ft | 441 kts | 243° |
| 2026-04-26 03:45 | 22.67169 | 118.06725 | 34059 ft | 441 kts | 243° |
| 2026-04-26 03:45 | 22.63828 | 118.01147 | 34051 ft | 442 kts | 243° |
| 2026-04-26 03:46 | 22.60483 | 117.95569 | 34050 ft | 442 kts | 243° |
| 2026-04-26 03:47 | 22.55491 | 117.87185 | 34049 ft | 442 kts | 243° |
| 2026-04-26 03:47 | 22.52169 | 117.81594 | 34057 ft | 442 kts | 243° |
| 2026-04-26 03:48 | 22.48844 | 117.76002 | 34049 ft | 442 kts | 243° |
| 2026-04-26 03:48 | 22.45518 | 117.70415 | 34047 ft | 442 kts | 243° |
| 2026-04-26 03:49 | 22.42193 | 117.64833 | 34038 ft | 441 kts | 243° |
| 2026-04-26 03:49 | 22.38862 | 117.59260 | 34048 ft | 441 kts | 243° |
| 2026-04-26 03:50 | 22.35558 | 117.53680 | 34051 ft | 438 kts | 246° |
| 2026-04-26 03:50 | 22.33522 | 117.47614 | 34053 ft | 426 kts | 264° |
| 2026-04-26 03:51 | 22.33181 | 117.41295 | 34049 ft | 421 kts | 272° |
| 2026-04-26 03:51 | 22.33074 | 117.34973 | 34050 ft | 421 kts | 272° |
| 2026-04-26 03:52 | 22.32952 | 117.28642 | 34049 ft | 422 kts | 272° |
| 2026-04-26 03:52 | 22.32832 | 117.22309 | 34051 ft | 422 kts | 272° |
| 2026-04-26 03:53 | 22.32712 | 117.15969 | 34058 ft | 422 kts | 272° |
| 2026-04-26 03:53 | 22.32589 | 117.09628 | 34057 ft | 422 kts | 272° |
| 2026-04-26 03:54 | 22.32463 | 117.03284 | 34058 ft | 423 kts | 272° |
| 2026-04-26 03:54 | 22.32330 | 116.96934 | 34060 ft | 423 kts | 272° |
| 2026-04-26 03:55 | 22.32196 | 116.90583 | 34062 ft | 423 kts | 272° |
| 2026-04-26 03:55 | 22.32065 | 116.84230 | 34057 ft | 423 kts | 271° |
| 2026-04-26 03:56 | 22.31929 | 116.77919 | 34031 ft | 424 kts | 270° |
| 2026-04-26 03:56 | 22.31795 | 116.71554 | 34040 ft | 424 kts | 270° |
| 2026-04-26 03:57 | 22.31657 | 116.65179 | 34039 ft | 425 kts | 270° |
| 2026-04-26 03:57 | 22.31512 | 116.58801 | 34043 ft | 425 kts | 270° |
| 2026-04-26 03:58 | 22.31366 | 116.52414 | 34045 ft | 426 kts | 270° |
| 2026-04-26 03:58 | 22.31217 | 116.46014 | 34044 ft | 426 kts | 270° |
| 2026-04-26 03:59 | 22.31066 | 116.39611 | 34046 ft | 426 kts | 270° |
| 2026-04-26 03:59 | 22.30912 | 116.33206 | 34055 ft | 427 kts | 270° |
| 2026-04-26 04:00 | 22.30757 | 116.26802 | 34033 ft | 427 kts | 270° |
| 2026-04-26 04:00 | 22.30680 | 116.23594 | 33893 ft | 428 kts | 270° |
| 2026-04-26 04:00 | 22.30602 | 116.20381 | 33632 ft | 428 kts | 270° |
| 2026-04-26 04:00 | 22.30519 | 116.17159 | 33373 ft | 430 kts | 270° |
| 2026-04-26 04:01 | 22.30433 | 116.13928 | 33110 ft | 431 kts | 270° |
| 2026-04-26 04:01 | 22.30347 | 116.10689 | 32865 ft | 432 kts | 270° |
| 2026-04-26 04:01 | 22.30263 | 116.07441 | 32614 ft | 434 kts | 270° |
| 2026-04-26 04:01 | 22.30179 | 116.04181 | 32365 ft | 435 kts | 270° |
| 2026-04-26 04:02 | 22.30095 | 116.00913 | 32118 ft | 436 kts | 270° |
| 2026-04-26 04:02 | 22.30009 | 115.97636 | 31874 ft | 438 kts | 270° |
| 2026-04-26 04:02 | 22.29920 | 115.94346 | 31632 ft | 439 kts | 270° |
| 2026-04-26 04:02 | 22.29831 | 115.91044 | 31386 ft | 441 kts | 270° |
| 2026-04-26 04:03 | 22.29743 | 115.87730 | 31151 ft | 442 kts | 270° |
| 2026-04-26 04:03 | 22.29654 | 115.84407 | 30915 ft | 444 kts | 270° |
| 2026-04-26 04:03 | 22.29564 | 115.81073 | 30681 ft | 445 kts | 270° |
| 2026-04-26 04:03 | 22.29475 | 115.77732 | 30158 ft | 446 kts | 270° |
| 2026-04-26 04:04 | 22.29384 | 115.74356 | 28961 ft | 453 kts | 270° |
| 2026-04-26 04:04 | 22.29292 | 115.70974 | 28421 ft | 446 kts | 270° |
| 2026-04-26 04:04 | 22.29205 | 115.67689 | 27759 ft | 442 kts | 270° |
| 2026-04-26 04:04 | 22.29118 | 115.64389 | 27099 ft | 438 kts | 270° |
| 2026-04-26 04:05 | 22.29030 | 115.61118 | 26445 ft | 434 kts | 270° |
| 2026-04-26 04:05 | 22.28942 | 115.57873 | 25797 ft | 431 kts | 270° |
| 2026-04-26 04:05 | 22.28850 | 115.54647 | 25155 ft | 428 kts | 269° |
| 2026-04-26 04:05 | 22.28759 | 115.51452 | 24525 ft | 425 kts | 269° |
| 2026-04-26 04:06 | 22.28670 | 115.48275 | 23896 ft | 422 kts | 269° |
| 2026-04-26 04:06 | 22.28584 | 115.45118 | 23208 ft | 419 kts | 269° |
| 2026-04-26 04:06 | 22.28497 | 115.41994 | 22608 ft | 413 kts | 269° |
| 2026-04-26 04:06 | 22.28408 | 115.38913 | 22015 ft | 408 kts | 269° |
| 2026-04-26 04:07 | 22.28318 | 115.35871 | 21458 ft | 404 kts | 269° |
| 2026-04-26 04:07 | 22.28232 | 115.32855 | 20918 ft | 400 kts | 269° |
| 2026-04-26 04:07 | 22.28144 | 115.29863 | 20395 ft | 397 kts | 269° |
| 2026-04-26 04:07 | 22.28057 | 115.26898 | 19886 ft | 394 kts | 269° |
| 2026-04-26 04:08 | 22.27969 | 115.23951 | 19378 ft | 391 kts | 269° |
| 2026-04-26 04:08 | 22.27880 | 115.21029 | 18862 ft | 388 kts | 268° |
| 2026-04-26 04:08 | 22.27791 | 115.18122 | 18348 ft | 386 kts | 268° |
| 2026-04-26 04:08 | 22.27701 | 115.15231 | 17762 ft | 384 kts | 268° |
| 2026-04-26 04:09 | 22.27612 | 115.12365 | 17237 ft | 380 kts | 268° |
| 2026-04-26 04:09 | 22.27523 | 115.09525 | 16691 ft | 377 kts | 269° |
| 2026-04-26 04:09 | 22.27431 | 115.06709 | 16147 ft | 374 kts | 268° |
| 2026-04-26 04:09 | 22.27339 | 115.03918 | 15592 ft | 371 kts | 269° |
| 2026-04-26 04:10 | 22.27248 | 115.01143 | 15035 ft | 369 kts | 268° |
| 2026-04-26 04:10 | 22.27156 | 114.98380 | 14474 ft | 367 kts | 269° |
| 2026-04-26 04:10 | 22.27064 | 114.95630 | 13908 ft | 366 kts | 268° |
| 2026-04-26 04:10 | 22.26971 | 114.92891 | 13303 ft | 364 kts | 269° |
| 2026-04-26 04:11 | 22.26883 | 114.90173 | 12731 ft | 361 kts | 269° |
| 2026-04-26 04:11 | 22.26795 | 114.87513 | 12173 ft | 358 kts | 269° |
| 2026-04-26 04:11 | 22.26707 | 114.84837 | 11603 ft | 355 kts | 269° |
| 2026-04-26 04:11 | 22.26619 | 114.82183 | 11163 ft | 350 kts | 268° |
| 2026-04-26 04:12 | 22.26239 | 114.79652 | 11002 ft | 337 kts | 254° |
| 2026-04-26 04:12 | 22.25302 | 114.77373 | 10803 ft | 330 kts | 240° |
| 2026-04-26 04:12 | 22.23883 | 114.75429 | 10571 ft | 330 kts | 226° |
| 2026-04-26 04:12 | 22.22218 | 114.73720 | 10332 ft | 330 kts | 225° |
| 2026-04-26 04:13 | 22.20554 | 114.72018 | 10106 ft | 329 kts | 225° |
| 2026-04-26 04:13 | 22.18908 | 114.70331 | 9931 ft | 321 kts | 225° |
| 2026-04-26 04:13 | 22.17321 | 114.68702 | 9801 ft | 310 kts | 225° |
| 2026-04-26 04:13 | 22.15788 | 114.67127 | 9672 ft | 299 kts | 226° |
| 2026-04-26 04:14 | 22.14303 | 114.65601 | 9543 ft | 293 kts | 225° |
| 2026-04-26 04:14 | 22.12833 | 114.64089 | 9418 ft | 291 kts | 225° |
| 2026-04-26 04:14 | 22.11369 | 114.62586 | 9288 ft | 289 kts | 226° |
| 2026-04-26 04:14 | 22.09911 | 114.61092 | 9162 ft | 289 kts | 225° |
| 2026-04-26 04:15 | 22.08452 | 114.59599 | 9036 ft | 289 kts | 225° |
| 2026-04-26 04:15 | 22.06992 | 114.58105 | 8910 ft | 289 kts | 225° |
| 2026-04-26 04:15 | 22.05536 | 114.56614 | 8786 ft | 288 kts | 225° |
| 2026-04-26 04:15 | 22.04081 | 114.55124 | 8665 ft | 288 kts | 224° |
| 2026-04-26 04:16 | 22.02691 | 114.53574 | 8539 ft | 287 kts | 233° |
| 2026-04-26 04:16 | 22.01677 | 114.51742 | 8416 ft | 285 kts | 248° |
| 2026-04-26 04:16 | 22.00931 | 114.49774 | 8290 ft | 283 kts | 249° |
| 2026-04-26 04:16 | 22.00185 | 114.47809 | 8172 ft | 283 kts | 249° |
| 2026-04-26 04:17 | 21.99448 | 114.45877 | 8053 ft | 282 kts | 248° |
| 2026-04-26 04:17 | 21.98701 | 114.43929 | 7930 ft | 281 kts | 248° |
| 2026-04-26 04:17 | 21.97954 | 114.41982 | 7808 ft | 281 kts | 248° |
| 2026-04-26 04:17 | 21.97208 | 114.40038 | 7693 ft | 281 kts | 248° |
| 2026-04-26 04:18 | 21.96461 | 114.38094 | 7558 ft | 281 kts | 248° |
| 2026-04-26 04:18 | 21.95715 | 114.36147 | 7449 ft | 280 kts | 248° |
| 2026-04-26 04:18 | 21.94975 | 114.34214 | 7319 ft | 278 kts | 248° |
| 2026-04-26 04:18 | 21.94236 | 114.32287 | 7206 ft | 278 kts | 248° |
| 2026-04-26 04:19 | 21.93496 | 114.30366 | 7097 ft | 276 kts | 247° |
| 2026-04-26 04:19 | 21.92760 | 114.28457 | 6969 ft | 276 kts | 247° |
| 2026-04-26 04:19 | 21.92024 | 114.26549 | 6855 ft | 276 kts | 247° |
| 2026-04-26 04:19 | 21.91288 | 114.24637 | 6737 ft | 276 kts | 247° |
| 2026-04-26 04:20 | 21.90557 | 114.22732 | 6618 ft | 276 kts | 247° |
| 2026-04-26 04:20 | 21.89986 | 114.20768 | 6503 ft | 275 kts | 261° |
| 2026-04-26 04:20 | 21.89973 | 114.18707 | 6384 ft | 276 kts | 278° |
| 2026-04-26 04:20 | 21.90515 | 114.16763 | 6260 ft | 276 kts | 295° |
| 2026-04-26 04:21 | 21.91441 | 114.14951 | 6136 ft | 276 kts | 298° |
| 2026-04-26 04:21 | 21.92376 | 114.13147 | 6012 ft | 276 kts | 298° |
| 2026-04-26 04:21 | 21.93306 | 114.11343 | 5889 ft | 275 kts | 297° |
| 2026-04-26 04:21 | 21.94231 | 114.09546 | 5766 ft | 274 kts | 297° |
| 2026-04-26 04:22 | 21.95153 | 114.07757 | 5642 ft | 273 kts | 297° |
| 2026-04-26 04:22 | 21.96076 | 114.05968 | 5519 ft | 273 kts | 298° |
| 2026-04-26 04:22 | 21.96688 | 114.04782 | 5438 ft | 274 kts | 298° |
| 2026-04-26 04:22 | 21.97613 | 114.02988 | 5314 ft | 274 kts | 298° |
| 2026-04-26 04:23 | 21.98537 | 114.01196 | 5189 ft | 273 kts | 297° |
| 2026-04-26 04:23 | 21.99455 | 113.99411 | 5075 ft | 273 kts | 297° |
| 2026-04-26 04:23 | 22.00373 | 113.97628 | 4948 ft | 272 kts | 298° |
| 2026-04-26 04:23 | 22.01293 | 113.95847 | 4829 ft | 271 kts | 298° |
| 2026-04-26 04:24 | 22.02210 | 113.94071 | 4710 ft | 271 kts | 298° |
| 2026-04-26 04:24 | 22.03125 | 113.92299 | 4573 ft | 270 kts | 298° |
| 2026-04-26 04:24 | 22.04030 | 113.90541 | 4450 ft | 265 kts | 298° |
| 2026-04-26 04:24 | 22.04912 | 113.88832 | 4325 ft | 256 kts | 298° |
| 2026-04-26 04:25 | 22.05765 | 113.87178 | 4197 ft | 249 kts | 298° |
| 2026-04-26 04:25 | 22.06603 | 113.85551 | 4072 ft | 248 kts | 298° |
| 2026-04-26 04:25 | 22.07438 | 113.83931 | 3964 ft | 247 kts | 299° |
| 2026-04-26 04:25 | 22.08270 | 113.82313 | 3843 ft | 247 kts | 298° |
| 2026-04-26 04:26 | 22.09099 | 113.80695 | 3724 ft | 246 kts | 299° |
| 2026-04-26 04:26 | 22.09950 | 113.79095 | 3603 ft | 246 kts | 305° |
| 2026-04-26 04:26 | 22.11075 | 113.77717 | 3484 ft | 245 kts | 320° |
| 2026-04-26 04:26 | 22.12478 | 113.76687 | 3364 ft | 244 kts | 334° |
| 2026-04-26 04:27 | 22.14016 | 113.75919 | 3244 ft | 243 kts | 336° |
| 2026-04-26 04:27 | 22.15552 | 113.75154 | 3128 ft | 243 kts | 336° |
| 2026-04-26 04:27 | 22.17087 | 113.74387 | 3025 ft | 244 kts | 335° |
| 2026-04-26 04:27 | 22.18605 | 113.73629 | 3000 ft | 234 kts | 335° |
| 2026-04-26 04:28 | 22.20051 | 113.72920 | 3008 ft | 226 kts | 340° |
| 2026-04-26 04:28 | 22.21582 | 113.72735 | 3002 ft | 223 kts | 11° |
| 2026-04-26 04:28 | 22.22983 | 113.73403 | 3009 ft | 222 kts | 33° |
| 2026-04-26 04:28 | 22.24280 | 113.74317 | 3003 ft | 224 kts | 33° |
| 2026-04-26 04:29 | 22.25565 | 113.75223 | 2977 ft | 214 kts | 34° |
| 2026-04-26 04:29 | 22.26631 | 113.76318 | 2628 ft | 216 kts | 58° |
| 2026-04-26 04:29 | 22.27213 | 113.77785 | 2301 ft | 209 kts | 71° |
| 2026-04-26 04:29 | 22.27676 | 113.79222 | 2040 ft | 195 kts | 71° |
| 2026-04-26 04:30 | 22.28117 | 113.80585 | 1771 ft | 189 kts | 71° |
| 2026-04-26 04:30 | 22.28534 | 113.81875 | 1530 ft | 175 kts | 71° |
| 2026-04-26 04:30 | 22.28916 | 113.83056 | 1307 ft | 160 kts | 71° |
| 2026-04-26 04:30 | 22.29268 | 113.84147 | 1108 ft | 154 kts | 71° |
| 2026-04-26 04:31 | 22.29610 | 113.85205 | 935 ft | 147 kts | 70° |
| 2026-04-26 04:31 | 22.29950 | 113.86246 | 750 ft | 147 kts | 70° |
| 2026-04-26 04:31 | 22.30279 | 113.87289 | 560 ft | 147 kts | 69° |
| 2026-04-26 04:31 | 22.30609 | 113.88325 | 385 ft | 145 kts | 69° |
| 2026-04-26 04:32 | 22.30941 | 113.89346 | 159 ft | 143 kts | 68° |
| 2026-04-26 04:32 | 22.31269 | 113.90349 | 33 ft | 134 kts | 70° |
| 2026-04-26 04:32 | 22.31534 | 113.91160 | 32 ft | 96 kts | 70° |
| 2026-04-26 04:32 | 22.31715 | 113.91731 | 33 ft | 70 kts | 71° |
| 2026-04-26 04:33 | 22.31792 | 113.92113 | 33 ft | 45 kts | 96° |
| 2026-04-26 04:33 | 22.31742 | 113.92267 | 32 ft | 7 kts | 160° |
| 2026-04-26 04:33 | 22.31705 | 113.92242 | 32 ft | 10 kts | 227° |
| 2026-04-26 04:33 | 22.31668 | 113.92154 | 32 ft | 17 kts | 250° |
| 2026-04-26 04:34 | 22.31621 | 113.92012 | 32 ft | 22 kts | 251° |
| 2026-04-26 04:34 | 22.31569 | 113.91844 | 32 ft | 25 kts | 249° |
| 2026-04-26 04:34 | 22.31475 | 113.91786 | 32 ft | 18 kts | 166° |
| 2026-04-26 04:34 | 22.31360 | 113.91819 | 32 ft | 15 kts | 180° |
| 2026-04-26 04:35 | 22.31330 | 113.91757 | 32 ft | 5 kts | 252° |
| 2026-04-26 04:35 | 22.31326 | 113.91746 | 31 ft | 0 kts | 251° |